sensor_id;sensor_type;location;lat;lon;timestamp;pressure;altitude;pressure_sealevel;temperature;humidity
46392;BME280;32098;49.448;7.904;2023-04-01T00:01:16;96637.44;;;7.41;73.63
46392;BME280;32098;49.448;7.904;2023-04-01T00:03:43;96644.19;;;7.27;74.18
46392;BME280;32098;49.448;7.904;2023-04-01T00:06:15;96633.56;;;7.27;73.97
46392;BME280;32098;49.448;7.904;2023-04-01T00:08:42;96635.09;;;7.23;74.64
46392;BME280;32098;49.448;7.904;2023-04-01T00:11:12;96636.94;;;7.22;74.39
46392;BME280;32098;49.448;7.904;2023-04-01T00:13:40;96642.16;;;7.34;74.57
46392;BME280;32098;49.448;7.904;2023-04-01T00:16:07;96635.34;;;7.43;74.11
46392;BME280;32098;49.448;7.904;2023-04-01T00:18:46;96644.94;;;7.44;73.98
46392;BME280;32098;49.448;7.904;2023-04-01T00:21:16;96625.22;;;7.40;74.24
46392;BME280;32098;49.448;7.904;2023-04-01T00:23:43;96626.88;;;7.46;73.79
46392;BME280;32098;49.448;7.904;2023-04-01T00:26:10;96617.69;;;7.32;74.18
46392;BME280;32098;49.448;7.904;2023-04-01T00:28:39;96611.94;;;7.40;73.95
46392;BME280;32098;49.448;7.904;2023-04-01T00:31:08;96609.63;;;7.22;73.90
46392;BME280;32098;49.448;7.904;2023-04-01T00:33:36;96608.31;;;7.24;74.39
46392;BME280;32098;49.448;7.904;2023-04-01T00:36:11;96614.13;;;7.21;74.19
46392;BME280;32098;49.448;7.904;2023-04-01T00:38:39;96607.50;;;7.24;74.28
46392;BME280;32098;49.448;7.904;2023-04-01T00:41:06;96568.72;;;7.01;73.68
46392;BME280;32098;49.448;7.904;2023-04-01T00:43:33;96615.41;;;7.19;74.14
46392;BME280;32098;49.448;7.904;2023-04-01T00:46:00;96615.53;;;7.29;74.13
46392;BME280;32098;49.448;7.904;2023-04-01T00:48:30;96608.72;;;7.38;73.82
46392;BME280;32098;49.448;7.904;2023-04-01T00:51:04;96622.63;;;7.45;73.67
46392;BME280;32098;49.448;7.904;2023-04-01T00:53:36;96615.47;;;7.24;73.87
46392;BME280;32098;49.448;7.904;2023-04-01T00:56:16;96613.31;;;7.21;73.72
46392;BME280;32098;49.448;7.904;2023-04-01T00:58:51;96603.84;;;7.30;74.12
46392;BME280;32098;49.448;7.904;2023-04-01T01:01:20;96611.31;;;7.33;73.80
46392;BME280;32098;49.448;7.904;2023-04-01T01:03:48;96616.44;;;7.40;73.47
46392;BME280;32098;49.448;7.904;2023-04-01T01:09:13;96562.28;;;6.97;73.16
46392;BME280;32098;49.448;7.904;2023-04-01T01:11:51;96588.88;;;7.19;73.82
46392;BME280;32098;49.448;7.904;2023-04-01T01:14:36;96600.09;;;7.26;72.99
46392;BME280;32098;49.448;7.904;2023-04-01T01:20:24;96567.59;;;6.97;73.74
46392;BME280;32098;49.448;7.904;2023-04-01T01:31:37;96607.38;;;7.14;75.89
46392;BME280;32098;49.448;7.904;2023-04-01T01:37:10;96597.31;;;7.16;76.13
46392;BME280;32098;49.448;7.904;2023-04-01T01:39:42;96604.63;;;7.09;76.92
46392;BME280;32098;49.448;7.904;2023-04-01T01:42:13;96569.94;;;6.94;78.49
46392;BME280;32098;49.448;7.904;2023-04-01T01:44:43;96600.06;;;7.04;78.89
46392;BME280;32098;49.448;7.904;2023-04-01T01:47:11;96589.00;;;6.91;79.16
46392;BME280;32098;49.448;7.904;2023-04-01T01:49:41;96589.63;;;6.76;78.77
46392;BME280;32098;49.448;7.904;2023-04-01T01:52:10;96595.88;;;6.87;79.37
46392;BME280;32098;49.448;7.904;2023-04-01T01:54:50;96599.75;;;7.01;79.78
46392;BME280;32098;49.448;7.904;2023-04-01T01:57:29;96600.72;;;6.95;80.23
46392;BME280;32098;49.448;7.904;2023-04-01T02:00:07;96586.03;;;6.87;81.46
46392;BME280;32098;49.448;7.904;2023-04-01T02:02:46;96601.78;;;6.94;81.90
46392;BME280;32098;49.448;7.904;2023-04-01T02:05:17;96602.69;;;6.83;82.50
46392;BME280;32098;49.448;7.904;2023-04-01T02:07:49;96557.03;;;6.59;83.05
46392;BME280;32098;49.448;7.904;2023-04-01T02:10:22;96582.03;;;6.85;83.21
46392;BME280;32098;49.448;7.904;2023-04-01T02:12:53;96582.28;;;6.83;83.55
46392;BME280;32098;49.448;7.904;2023-04-01T02:15:24;96586.22;;;6.81;82.31
46392;BME280;32098;49.448;7.904;2023-04-01T02:17:54;96590.34;;;6.72;82.36
46392;BME280;32098;49.448;7.904;2023-04-01T02:20:23;96582.59;;;6.87;82.93
46392;BME280;32098;49.448;7.904;2023-04-01T02:22:53;96578.19;;;6.76;82.17
46392;BME280;32098;49.448;7.904;2023-04-01T02:25:27;96585.34;;;6.75;82.48
46392;BME280;32098;49.448;7.904;2023-04-01T02:27:56;96581.47;;;6.83;82.61
46392;BME280;32098;49.448;7.904;2023-04-01T02:30:27;96579.47;;;6.73;83.51
46392;BME280;32098;49.448;7.904;2023-04-01T02:32:56;96574.84;;;6.63;83.72
46392;BME280;32098;49.448;7.904;2023-04-01T02:35:25;96571.94;;;6.65;83.87
46392;BME280;32098;49.448;7.904;2023-04-01T02:37:53;96588.03;;;6.58;84.61
46392;BME280;32098;49.448;7.904;2023-04-01T02:40:21;96582.69;;;6.75;84.75
46392;BME280;32098;49.448;7.904;2023-04-01T02:42:48;96565.22;;;6.57;83.99
46392;BME280;32098;49.448;7.904;2023-04-01T02:45:15;96581.25;;;6.67;84.17
46392;BME280;32098;49.448;7.904;2023-04-01T02:47:42;96574.84;;;6.63;84.55
46392;BME280;32098;49.448;7.904;2023-04-01T02:50:09;96569.41;;;6.53;84.25
46392;BME280;32098;49.448;7.904;2023-04-01T02:52:36;96572.13;;;6.58;84.00
46392;BME280;32098;49.448;7.904;2023-04-01T02:55:03;96578.25;;;6.59;84.10
46392;BME280;32098;49.448;7.904;2023-04-01T02:57:30;96586.97;;;6.59;83.51
46392;BME280;32098;49.448;7.904;2023-04-01T02:59:57;96561.59;;;6.63;83.78
46392;BME280;32098;49.448;7.904;2023-04-01T03:02:24;96566.97;;;6.52;83.89
46392;BME280;32098;49.448;7.904;2023-04-01T03:04:51;96568.94;;;6.56;83.53
46392;BME280;32098;49.448;7.904;2023-04-01T03:07:18;96569.19;;;6.77;83.03
46392;BME280;32098;49.448;7.904;2023-04-01T03:09:48;96577.25;;;6.65;82.71
46392;BME280;32098;49.448;7.904;2023-04-01T03:12:14;96560.53;;;6.64;82.94
46392;BME280;32098;49.448;7.904;2023-04-01T03:14:48;96568.94;;;6.56;83.86
46392;BME280;32098;49.448;7.904;2023-04-01T03:17:16;96584.31;;;6.59;83.30
46392;BME280;32098;49.448;7.904;2023-04-01T03:19:42;96573.38;;;6.73;82.40
46392;BME280;32098;49.448;7.904;2023-04-01T03:22:10;96566.63;;;6.82;82.02
46392;BME280;32098;49.448;7.904;2023-04-01T03:24:37;96575.66;;;6.64;81.29
46392;BME280;32098;49.448;7.904;2023-04-01T03:27:04;96563.91;;;6.60;81.75
46392;BME280;32098;49.448;7.904;2023-04-01T03:29:30;96578.53;;;6.62;82.01
46392;BME280;32098;49.448;7.904;2023-04-01T03:31:57;96576.28;;;6.71;81.84
46392;BME280;32098;49.448;7.904;2023-04-01T03:34:26;96575.81;;;6.74;81.93
46392;BME280;32098;49.448;7.904;2023-04-01T03:36:54;96577.03;;;6.66;82.18
46392;BME280;32098;49.448;7.904;2023-04-01T03:39:20;96579.09;;;6.64;82.03
46392;BME280;32098;49.448;7.904;2023-04-01T03:41:49;96575.47;;;6.71;81.53
46392;BME280;32098;49.448;7.904;2023-04-01T03:44:16;96566.63;;;6.82;81.15
46392;BME280;32098;49.448;7.904;2023-04-01T03:46:45;96560.03;;;6.67;80.87
46392;BME280;32098;49.448;7.904;2023-04-01T03:49:12;96570.16;;;6.71;80.70
46392;BME280;32098;49.448;7.904;2023-04-01T03:51:40;96557.31;;;6.62;81.65
46392;BME280;32098;49.448;7.904;2023-04-01T03:54:09;96561.66;;;6.68;81.96
46392;BME280;32098;49.448;7.904;2023-04-01T03:56:36;96566.56;;;6.77;81.64
46392;BME280;32098;49.448;7.904;2023-04-01T03:59:05;96554.25;;;6.71;81.54
46392;BME280;32098;49.448;7.904;2023-04-01T04:01:32;96567.03;;;6.74;81.40
46392;BME280;32098;49.448;7.904;2023-04-01T04:03:59;96555.34;;;6.75;81.71
46392;BME280;32098;49.448;7.904;2023-04-01T04:06:27;96526.97;;;6.53;81.56
46392;BME280;32098;49.448;7.904;2023-04-01T04:08:54;96559.06;;;6.74;81.69
46392;BME280;32098;49.448;7.904;2023-04-01T04:11:22;96554.38;;;6.59;82.71
46392;BME280;32098;49.448;7.904;2023-04-01T04:13:51;96562.47;;;6.52;83.29
46392;BME280;32098;49.448;7.904;2023-04-01T04:16:19;96566.41;;;6.66;83.39
46392;BME280;32098;49.448;7.904;2023-04-01T04:18:53;96558.94;;;6.63;84.07
46392;BME280;32098;49.448;7.904;2023-04-01T04:21:20;96545.75;;;6.52;84.88
46392;BME280;32098;49.448;7.904;2023-04-01T04:23:46;96558.81;;;6.53;84.82
46392;BME280;32098;49.448;7.904;2023-04-01T04:26:15;96561.94;;;6.50;84.42
46392;BME280;32098;49.448;7.904;2023-04-01T04:28:48;96560.66;;;6.53;84.69
46392;BME280;32098;49.448;7.904;2023-04-01T04:31:23;96514.59;;;6.21;85.11
46392;BME280;32098;49.448;7.904;2023-04-01T04:33:54;96562.94;;;6.44;85.54
46392;BME280;32098;49.448;7.904;2023-04-01T04:36:21;96561.72;;;6.35;85.10
46392;BME280;32098;49.448;7.904;2023-04-01T04:38:50;96561.56;;;6.42;85.03
46392;BME280;32098;49.448;7.904;2023-04-01T04:41:19;96558.19;;;6.46;85.17
46392;BME280;32098;49.448;7.904;2023-04-01T04:43:51;96558.00;;;6.53;85.67
46392;BME280;32098;49.448;7.904;2023-04-01T04:46:18;96564.19;;;6.58;85.26
46392;BME280;32098;49.448;7.904;2023-04-01T04:48:46;96563.47;;;6.46;85.73
46392;BME280;32098;49.448;7.904;2023-04-01T04:51:16;96570.41;;;6.31;85.09
46392;BME280;32098;49.448;7.904;2023-04-01T04:53:42;96557.28;;;6.41;85.01
46392;BME280;32098;49.448;7.904;2023-04-01T04:56:09;96554.91;;;6.39;85.62
46392;BME280;32098;49.448;7.904;2023-04-01T04:58:44;96563.28;;;6.53;84.64
46392;BME280;32098;49.448;7.904;2023-04-01T05:01:16;96563.28;;;6.53;85.44
46392;BME280;32098;49.448;7.904;2023-04-01T05:03:44;96561.69;;;6.52;85.01
46392;BME280;32098;49.448;7.904;2023-04-01T05:06:12;96567.50;;;6.49;85.70
46392;BME280;32098;49.448;7.904;2023-04-01T05:08:40;96560.09;;;6.51;85.83
46392;BME280;32098;49.448;7.904;2023-04-01T05:11:13;96564.91;;;6.37;87.01
46392;BME280;32098;49.448;7.904;2023-04-01T05:13:42;96556.75;;;6.39;87.11
46392;BME280;32098;49.448;7.904;2023-04-01T05:16:14;96557.56;;;6.39;86.43
46392;BME280;32098;49.448;7.904;2023-04-01T05:18:42;96547.28;;;6.26;86.45
46392;BME280;32098;49.448;7.904;2023-04-01T05:21:10;96557.22;;;6.36;86.61
46392;BME280;32098;49.448;7.904;2023-04-01T05:23:37;96521.44;;;6.17;85.80
46392;BME280;32098;49.448;7.904;2023-04-01T05:26:06;96548.06;;;6.43;85.30
46392;BME280;32098;49.448;7.904;2023-04-01T05:28:33;96548.88;;;6.27;85.21
46392;BME280;32098;49.448;7.904;2023-04-01T05:31:01;96553.34;;;6.43;85.23
46392;BME280;32098;49.448;7.904;2023-04-01T05:33:39;96564.91;;;6.37;85.41
46392;BME280;32098;49.448;7.904;2023-04-01T05:36:11;96561.84;;;6.45;84.94
46392;BME280;32098;49.448;7.904;2023-04-01T05:38:40;96558.94;;;6.47;84.63
46392;BME280;32098;49.448;7.904;2023-04-01T05:41:10;96553.34;;;6.43;85.04
46392;BME280;32098;49.448;7.904;2023-04-01T05:43:42;96557.84;;;6.43;85.30
46392;BME280;32098;49.448;7.904;2023-04-01T05:46:28;96554.16;;;6.27;85.22
46392;BME280;32098;49.448;7.904;2023-04-01T05:49:15;96549.53;;;6.34;85.85
46392;BME280;32098;49.448;7.904;2023-04-01T05:51:42;96524.47;;;6.25;84.45
46392;BME280;32098;49.448;7.904;2023-04-01T05:54:09;96545.34;;;6.38;84.99
46392;BME280;32098;49.448;7.904;2023-04-01T05:56:36;96545.19;;;6.28;84.72
46392;BME280;32098;49.448;7.904;2023-04-01T05:59:03;96552.25;;;6.39;85.35
46392;BME280;32098;49.448;7.904;2023-04-01T06:01:30;96547.16;;;6.38;85.17
46392;BME280;32098;49.448;7.904;2023-04-01T06:03:57;96540.84;;;6.39;85.06
46392;BME280;32098;49.448;7.904;2023-04-01T06:06:27;96544.78;;;6.36;85.38
46392;BME280;32098;49.448;7.904;2023-04-01T06:09:10;96520.44;;;6.23;85.68
46392;BME280;32098;49.448;7.904;2023-04-01T06:12:03;96532.16;;;6.43;84.54
46392;BME280;32098;49.448;7.904;2023-04-01T06:14:52;96540.06;;;6.60;85.04
46392;BME280;32098;49.448;7.904;2023-04-01T06:17:39;96545.13;;;6.61;84.74
46392;BME280;32098;49.448;7.904;2023-04-01T06:20:26;96553.00;;;6.56;84.47
46392;BME280;32098;49.448;7.904;2023-04-01T06:23:10;96549.97;;;6.48;85.59
46392;BME280;32098;49.448;7.904;2023-04-01T06:33:38;96549.53;;;6.34;86.75
46392;BME280;32098;49.448;7.904;2023-04-01T06:36:39;96560.75;;;6.41;86.94
46392;BME280;32098;49.448;7.904;2023-04-01T06:42:29;96569.13;;;6.33;86.90
46392;BME280;32098;49.448;7.904;2023-04-01T06:45:20;96556.56;;;6.45;87.50
46392;BME280;32098;49.448;7.904;2023-04-01T06:48:25;96566.78;;;6.37;86.26
46392;BME280;32098;49.448;7.904;2023-04-01T06:54:23;96564.25;;;6.63;85.75
46392;BME280;32098;49.448;7.904;2023-04-01T06:57:34;96563.31;;;7.13;89.94
46392;BME280;32098;49.448;7.904;2023-04-01T07:00:12;96567.44;;;7.25;84.91
46392;BME280;32098;49.448;7.904;2023-04-01T07:02:48;96561.50;;;7.18;83.51
46392;BME280;32098;49.448;7.904;2023-04-01T07:05:22;96563.53;;;7.11;83.49
46392;BME280;32098;49.448;7.904;2023-04-01T07:07:52;96554.44;;;6.86;84.57
46392;BME280;32098;49.448;7.904;2023-04-01T07:14:02;96554.56;;;6.96;84.67
46392;BME280;32098;49.448;7.904;2023-04-01T07:16:44;96559.34;;;6.94;84.81
46392;BME280;32098;49.448;7.904;2023-04-01T07:19:20;96555.47;;;6.85;85.32
46392;BME280;32098;49.448;7.904;2023-04-01T07:25:07;96560.44;;;6.98;85.50
46392;BME280;32098;49.448;7.904;2023-04-01T07:27:38;96563.16;;;7.03;85.48
46392;BME280;32098;49.448;7.904;2023-04-01T07:30:14;96556.41;;;6.95;85.18
46392;BME280;32098;49.448;7.904;2023-04-01T07:32:51;96565.50;;;6.99;86.17
46392;BME280;32098;49.448;7.904;2023-04-01T07:35:30;96559.47;;;7.04;86.18
46392;BME280;32098;49.448;7.904;2023-04-01T07:38:10;96557.75;;;7.14;86.23
46392;BME280;32098;49.448;7.904;2023-04-01T07:57:43;96589.97;;;7.23;86.85
46392;BME280;32098;49.448;7.904;2023-04-01T08:06:24;96589.69;;;7.19;86.88
46392;BME280;32098;49.448;7.904;2023-04-01T08:12:02;96590.78;;;7.23;86.72
46392;BME280;32098;49.448;7.904;2023-04-01T08:15:16;96591.09;;;7.27;86.88
46392;BME280;32098;49.448;7.904;2023-04-01T08:20:56;96569.53;;;7.23;87.25
46392;BME280;32098;49.448;7.904;2023-04-01T08:23:37;96602.22;;;7.51;86.74
46392;BME280;32098;49.448;7.904;2023-04-01T08:26:41;96603.72;;;7.42;86.74
46392;BME280;32098;49.448;7.904;2023-04-01T08:29:17;96605.44;;;7.53;86.99
46392;BME280;32098;49.448;7.904;2023-04-01T08:31:53;96609.09;;;7.47;87.26
46392;BME280;32098;49.448;7.904;2023-04-01T08:34:29;96599.53;;;7.72;86.88
46392;BME280;32098;49.448;7.904;2023-04-01T08:37:13;96593.22;;;7.78;86.42
46392;BME280;32098;49.448;7.904;2023-04-01T08:39:48;96605.53;;;7.63;86.26
46392;BME280;32098;49.448;7.904;2023-04-01T08:45:24;96603.91;;;7.83;85.86
46392;BME280;32098;49.448;7.904;2023-04-01T08:48:21;96605.50;;;7.84;85.91
46392;BME280;32098;49.448;7.904;2023-04-01T08:51:12;96610.44;;;8.03;85.84
46392;BME280;32098;49.448;7.904;2023-04-01T08:56:57;96615.84;;;8.13;85.18
46392;BME280;32098;49.448;7.904;2023-04-01T09:03:00;96613.06;;;7.98;85.88
46392;BME280;32098;49.448;7.904;2023-04-01T09:17:36;96621.25;;;8.23;84.34
46392;BME280;32098;49.448;7.904;2023-04-01T09:35:06;96640.28;;;8.41;85.04
46392;BME280;32098;49.448;7.904;2023-04-01T09:41:37;96641.69;;;8.49;84.71
46392;BME280;32098;49.448;7.904;2023-04-01T09:44:09;96644.38;;;8.54;84.00
46392;BME280;32098;49.448;7.904;2023-04-01T09:49:37;96639.88;;;8.54;83.63
46392;BME280;32098;49.448;7.904;2023-04-01T09:52:27;96655.28;;;8.52;84.35
46392;BME280;32098;49.448;7.904;2023-04-01T09:58:04;96657.16;;;8.52;83.88
46392;BME280;32098;49.448;7.904;2023-04-01T10:01:39;96660.34;;;8.54;83.07
46392;BME280;32098;49.448;7.904;2023-04-01T10:04:47;96658.16;;;8.46;83.78
46392;BME280;32098;49.448;7.904;2023-04-01T10:21:16;96666.69;;;8.48;83.97
46392;BME280;32098;49.448;7.904;2023-04-01T10:33:14;96673.22;;;8.67;83.08
46392;BME280;32098;49.448;7.904;2023-04-01T10:42:10;96667.91;;;8.67;82.52
46392;BME280;32098;49.448;7.904;2023-04-01T10:57:15;96668.81;;;8.83;81.23
46392;BME280;32098;49.448;7.904;2023-04-01T11:00:18;96670.00;;;8.65;81.73
46392;BME280;32098;49.448;7.904;2023-04-01T11:09:24;96668.38;;;8.59;81.53
46392;BME280;32098;49.448;7.904;2023-04-01T11:15:30;96681.31;;;8.77;80.70
46392;BME280;32098;49.448;7.904;2023-04-01T11:17:52;96679.31;;;8.94;79.35
46392;BME280;32098;49.448;7.904;2023-04-01T11:20:32;96670.69;;;8.77;78.53
46392;BME280;32098;49.448;7.904;2023-04-01T11:26:06;96688.31;;;8.88;77.78
46392;BME280;32098;49.448;7.904;2023-04-01T11:34:48;96689.47;;;9.07;77.50
46392;BME280;32098;49.448;7.904;2023-04-01T11:40:48;96699.94;;;9.14;77.43
46392;BME280;32098;49.448;7.904;2023-04-01T11:49:36;96702.75;;;8.97;78.46
46392;BME280;32098;49.448;7.904;2023-04-01T11:57:57;96713.41;;;8.97;79.59
46392;BME280;32098;49.448;7.904;2023-04-01T12:11:35;96731.31;;;9.07;79.30
46392;BME280;32098;49.448;7.904;2023-04-01T12:17:17;96731.31;;;8.75;80.27
46392;BME280;32098;49.448;7.904;2023-04-01T12:20:33;96729.88;;;8.94;80.48
46392;BME280;32098;49.448;7.904;2023-04-01T12:28:59;96739.97;;;9.29;78.31
46392;BME280;32098;49.448;7.904;2023-04-01T12:39:41;96731.75;;;9.41;77.48
46392;BME280;32098;49.448;7.904;2023-04-01T12:48:01;96738.06;;;9.19;78.58
46392;BME280;32098;49.448;7.904;2023-04-01T12:56:09;96741.47;;;9.15;78.14
46392;BME280;32098;49.448;7.904;2023-04-01T12:58:56;96741.19;;;9.11;77.25
46392;BME280;32098;49.448;7.904;2023-04-01T13:07:22;96748.91;;;9.13;76.36
46392;BME280;32098;49.448;7.904;2023-04-01T13:15:18;96766.84;;;9.28;76.01
46392;BME280;32098;49.448;7.904;2023-04-01T13:17:53;96758.34;;;9.31;75.22
46392;BME280;32098;49.448;7.904;2023-04-01T13:20:36;96758.53;;;9.19;75.21
46392;BME280;32098;49.448;7.904;2023-04-01T13:23:20;96766.81;;;9.22;75.11
46392;BME280;32098;49.448;7.904;2023-04-01T13:26:03;96765.22;;;9.21;75.65
46392;BME280;32098;49.448;7.904;2023-04-01T13:28:47;96769.28;;;9.29;75.31
46392;BME280;32098;49.448;7.904;2023-04-01T13:34:35;96773.38;;;9.10;75.09
46392;BME280;32098;49.448;7.904;2023-04-01T13:40:17;96780.34;;;9.16;75.46
46392;BME280;32098;49.448;7.904;2023-04-01T13:42:54;96773.22;;;9.21;75.90
46392;BME280;32098;49.448;7.904;2023-04-01T13:45:38;96745.69;;;9.11;75.86
46392;BME280;32098;49.448;7.904;2023-04-01T13:48:25;96780.66;;;9.19;75.79
46392;BME280;32098;49.448;7.904;2023-04-01T13:51:09;96783.84;;;9.16;75.60
46392;BME280;32098;49.448;7.904;2023-04-01T13:56:48;96777.56;;;9.38;74.98
46392;BME280;32098;49.448;7.904;2023-04-01T13:59:40;96783.50;;;9.45;74.39
46392;BME280;32098;49.448;7.904;2023-04-01T14:05:26;96790.88;;;9.38;73.58
46392;BME280;32098;49.448;7.904;2023-04-01T14:08:36;96794.09;;;9.35;73.87
46392;BME280;32098;49.448;7.904;2023-04-01T14:14:14;96782.59;;;9.29;73.94
46392;BME280;32098;49.448;7.904;2023-04-01T14:19:27;96775.91;;;9.27;73.70
46392;BME280;32098;49.448;7.904;2023-04-01T14:24:56;96789.03;;;9.38;73.73
46392;BME280;32098;49.448;7.904;2023-04-01T14:27:54;96793.13;;;9.51;72.71
46392;BME280;32098;49.448;7.904;2023-04-01T14:30:42;96793.13;;;9.51;73.28
46392;BME280;32098;49.448;7.904;2023-04-01T14:47:53;96815.50;;;9.50;71.44
46392;BME280;32098;49.448;7.904;2023-04-01T14:50:41;96795.78;;;9.51;70.79
46392;BME280;32098;49.448;7.904;2023-04-01T14:55:52;96824.91;;;9.62;70.72
46392;BME280;32098;49.448;7.904;2023-04-01T14:58:22;96818.75;;;9.57;70.32
46392;BME280;32098;49.448;7.904;2023-04-01T15:01:10;96832.09;;;9.62;70.56
46392;BME280;32098;49.448;7.904;2023-04-01T15:03:57;96814.50;;;9.61;70.19
46392;BME280;32098;49.448;7.904;2023-04-01T15:09:52;96833.03;;;9.46;71.04
46392;BME280;32098;49.448;7.904;2023-04-01T15:12:38;96830.41;;;9.51;71.53
46392;BME280;32098;49.448;7.904;2023-04-01T15:18:05;96834.63;;;9.42;72.64
46392;BME280;32098;49.448;7.904;2023-04-01T15:23:08;96831.28;;;9.61;73.27
46392;BME280;32098;49.448;7.904;2023-04-01T15:25:50;96837.38;;;9.52;72.38
46392;BME280;32098;49.448;7.904;2023-04-01T15:28:36;96835.81;;;9.61;72.72
46392;BME280;32098;49.448;7.904;2023-04-01T15:36:40;96851.47;;;9.47;72.46
46392;BME280;32098;49.448;7.904;2023-04-01T15:41:42;96870.38;;;9.14;73.51
46392;BME280;32098;49.448;7.904;2023-04-01T15:47:01;96871.53;;;9.28;73.36
46392;BME280;32098;49.448;7.904;2023-04-01T15:49:37;96872.09;;;9.30;73.33
46392;BME280;32098;49.448;7.904;2023-04-01T15:52:24;96884.53;;;9.19;72.70
46392;BME280;32098;49.448;7.904;2023-04-01T15:55:27;96877.09;;;9.21;71.91
46392;BME280;32098;49.448;7.904;2023-04-01T16:03:57;96900.84;;;9.28;71.47
46392;BME280;32098;49.448;7.904;2023-04-01T16:06:51;96894.13;;;9.20;70.96
46392;BME280;32098;49.448;7.904;2023-04-01T16:09:29;96891.84;;;9.07;70.75
46392;BME280;32098;49.448;7.904;2023-04-01T16:12:19;96896.13;;;9.08;70.40
46392;BME280;32098;49.448;7.904;2023-04-01T16:15:10;96901.81;;;9.17;70.75
46392;BME280;32098;49.448;7.904;2023-04-01T16:18:06;96895.53;;;9.01;70.90
46392;BME280;32098;49.448;7.904;2023-04-01T16:20:55;96872.78;;;8.89;70.42
46392;BME280;32098;49.448;7.904;2023-04-01T16:23:36;96911.56;;;9.06;70.16
46392;BME280;32098;49.448;7.904;2023-04-01T16:26:23;96911.31;;;9.08;69.85
46392;BME280;32098;49.448;7.904;2023-04-01T16:29:17;96913.72;;;9.09;69.90
46392;BME280;32098;49.448;7.904;2023-04-01T16:34:40;96905.53;;;8.89;69.37
46392;BME280;32098;49.448;7.904;2023-04-01T16:37:15;96911.97;;;8.93;69.45
46392;BME280;32098;49.448;7.904;2023-04-01T16:42:51;96911.22;;;8.98;68.74
46392;BME280;32098;49.448;7.904;2023-04-01T16:48:05;96880.75;;;8.62;69.14
46392;BME280;32098;49.448;7.904;2023-04-01T16:50:44;96909.78;;;8.90;69.43
46392;BME280;32098;49.448;7.904;2023-04-01T16:53:46;96915.00;;;8.80;70.20
46392;BME280;32098;49.448;7.904;2023-04-01T16:56:21;96910.31;;;8.87;70.10
46392;BME280;32098;49.448;7.904;2023-04-01T17:01:32;96918.19;;;8.77;70.98
46392;BME280;32098;49.448;7.904;2023-04-01T17:04:25;96925.59;;;8.75;71.14
46392;BME280;32098;49.448;7.904;2023-04-01T17:07:27;96925.59;;;8.75;71.58
46392;BME280;32098;49.448;7.904;2023-04-01T17:13:01;96914.75;;;8.60;71.07
46392;BME280;32098;49.448;7.904;2023-04-01T17:15:53;96920.00;;;8.55;71.59
46392;BME280;32098;49.448;7.904;2023-04-01T17:21:22;96873.31;;;8.21;71.27
46392;BME280;32098;49.448;7.904;2023-04-01T17:23:58;96938.75;;;8.65;71.17
46392;BME280;32098;49.448;7.904;2023-04-01T17:29:21;96947.44;;;8.55;71.01
46392;BME280;32098;49.448;7.904;2023-04-01T17:32:17;96937.84;;;8.54;71.01
46392;BME280;32098;49.448;7.904;2023-04-01T17:35:13;96947.63;;;8.49;70.97
46392;BME280;32098;49.448;7.904;2023-04-01T17:43:47;96950.03;;;8.50;71.25
46392;BME280;32098;49.448;7.904;2023-04-01T17:49:25;96954.47;;;8.45;71.24
46392;BME280;32098;49.448;7.904;2023-04-01T18:02:49;96984.81;;;8.27;71.92
46392;BME280;32098;49.448;7.904;2023-04-01T18:05:36;96988.38;;;8.33;72.02
46392;BME280;32098;49.448;7.904;2023-04-01T18:08:56;96999.66;;;8.23;72.06
46392;BME280;32098;49.448;7.904;2023-04-01T18:11:35;96952.94;;;8.11;71.97
46392;BME280;32098;49.448;7.904;2023-04-01T18:14:47;96999.81;;;8.33;71.52
46392;BME280;32098;49.448;7.904;2023-04-01T18:17:40;97006.50;;;8.36;71.92
46392;BME280;32098;49.448;7.904;2023-04-01T18:25:37;97018.41;;;8.88;72.06
46392;BME280;32098;49.448;7.904;2023-04-01T18:28:18;97016.28;;;8.90;70.70
46392;BME280;32098;49.448;7.904;2023-04-01T18:30:58;97016.69;;;8.77;70.68
46392;BME280;32098;49.448;7.904;2023-04-01T18:33:48;97015.56;;;8.56;70.62
46392;BME280;32098;49.448;7.904;2023-04-01T18:36:23;97030.88;;;8.66;70.97
46392;BME280;32098;49.448;7.904;2023-04-01T18:38:59;97042.19;;;8.56;71.23
46392;BME280;32098;49.448;7.904;2023-04-01T18:41:47;97037.00;;;8.50;71.61
46392;BME280;32098;49.448;7.904;2023-04-01T18:44:41;97045.50;;;8.47;71.63
46392;BME280;32098;49.448;7.904;2023-04-01T18:47:44;97051.25;;;8.39;71.96
46392;BME280;32098;49.448;7.904;2023-04-01T18:52:56;97027.88;;;8.24;72.03
46392;BME280;32098;49.448;7.904;2023-04-01T19:03:52;97073.41;;;8.28;72.81
46392;BME280;32098;49.448;7.904;2023-04-01T19:06:35;97079.53;;;8.28;72.71
46392;BME280;32098;49.448;7.904;2023-04-01T19:09:33;97076.47;;;8.20;73.25
46392;BME280;32098;49.448;7.904;2023-04-01T19:12:54;97089.34;;;8.28;73.11
46392;BME280;32098;49.448;7.904;2023-04-01T19:18:19;97092.34;;;8.31;73.05
46392;BME280;32098;49.448;7.904;2023-04-01T19:20:57;97104.28;;;8.29;72.77
46392;BME280;32098;49.448;7.904;2023-04-01T19:26:40;97103.38;;;8.23;73.37
46392;BME280;32098;49.448;7.904;2023-04-01T19:40:58;97110.63;;;8.28;73.42
46392;BME280;32098;49.448;7.904;2023-04-01T19:43:43;97117.50;;;8.24;73.79
46392;BME280;32098;49.448;7.904;2023-04-01T19:46:20;97110.56;;;8.23;73.40
46392;BME280;32098;49.448;7.904;2023-04-01T19:51:54;97075.19;;;8.06;73.78
46392;BME280;32098;49.448;7.904;2023-04-01T19:57:15;97098.72;;;8.14;73.90
46392;BME280;32098;49.448;7.904;2023-04-01T19:59:51;97117.41;;;8.19;74.08
46392;BME280;32098;49.448;7.904;2023-04-01T20:05:33;97120.06;;;8.19;74.20
46392;BME280;32098;49.448;7.904;2023-04-01T20:08:28;97127.25;;;8.18;74.32
46392;BME280;32098;49.448;7.904;2023-04-01T20:11:08;97122.72;;;8.19;74.28
46392;BME280;32098;49.448;7.904;2023-04-01T20:23:16;97134.97;;;8.20;74.82
46392;BME280;32098;49.448;7.904;2023-04-01T20:25:55;97149.59;;;8.17;74.50
46392;BME280;32098;49.448;7.904;2023-04-01T20:28:38;97141.34;;;8.19;74.43
46392;BME280;32098;49.448;7.904;2023-04-01T20:31:26;97156.84;;;8.22;74.48
46392;BME280;32098;49.448;7.904;2023-04-01T20:34:18;97112.47;;;7.94;74.70
46392;BME280;32098;49.448;7.904;2023-04-01T20:37:00;97165.84;;;8.21;74.98
46392;BME280;32098;49.448;7.904;2023-04-01T20:47:45;97161.00;;;8.18;74.75